KLGB

Long Beach / Daugherty Field / Airport

Long Beach, California, USA
METAR KLGB 182053Z 20007KT 9SM CLR 28/19 A3000 RMK AO2 SLP159 T02780194 58025
Observed Flight Rules
Aug-18 @ 20:53 UTC (an hour ago) Visual Flight Rules
Wind Visibility Clouds
200° at 7 knots 9 miles
  • Clear skies
Temperatures Readings
Current 28°C / 82°F
Dewpoint 19°C / 66°F
Humidity 58%
Altimeter 30" Hg
Pressure 1015.9 hPa
Elevation 10
METAR KLGB 182053Z 20007KT 9SM CLR 28/19 A3000 RMK AO2 SLP159 T02780194 58025
Observed Flight Rules
Aug-18 @ 20:53 UTC
(an hour ago)
VFR
Wind Visibility
200° at 7 knots 9 miles
Clouds
  • Clear skies
Temperature Dewpoint
28°C / 82°F 19°C / 66°F
Humidity Altimeter Pressure
58% 30" Hg 1015.9 hPa